sensor_id;sensor_type;location;lat;lon;timestamp;pressure;altitude;pressure_sealevel;temperature;humidity
40708;BME280;26392;42.696;23.350;2023-07-02T00:00:50;94700.22;;;18.23;100.00
40708;BME280;26392;42.696;23.350;2023-07-02T00:03:17;94688.63;;;18.03;100.00
40708;BME280;26392;42.696;23.350;2023-07-02T00:05:47;94686.38;;;18.05;100.00
40708;BME280;26392;42.696;23.350;2023-07-02T00:08:15;94697.56;;;18.09;100.00
40708;BME280;26392;42.696;23.350;2023-07-02T00:10:40;94695.66;;;18.09;100.00
40708;BME280;26392;42.696;23.350;2023-07-02T00:13:06;94692.13;;;18.18;100.00
40708;BME280;26392;42.696;23.350;2023-07-02T00:15:31;94686.63;;;18.26;100.00
40708;BME280;26392;42.696;23.350;2023-07-02T00:17:57;94680.63;;;18.24;100.00
40708;BME280;26392;42.696;23.350;2023-07-02T00:20:22;94679.16;;;18.27;100.00
40708;BME280;26392;42.696;23.350;2023-07-02T00:22:49;94680.94;;;18.23;100.00
40708;BME280;26392;42.696;23.350;2023-07-02T00:25:14;94672.81;;;18.18;100.00
40708;BME280;26392;42.696;23.350;2023-07-02T00:27:40;94672.31;;;18.16;100.00
40708;BME280;26392;42.696;23.350;2023-07-02T00:30:06;94686.78;;;18.21;100.00
40708;BME280;26392;42.696;23.350;2023-07-02T00:32:32;94689.84;;;18.20;100.00
40708;BME280;26392;42.696;23.350;2023-07-02T00:34:57;94690.03;;;18.23;100.00
40708;BME280;26392;42.696;23.350;2023-07-02T00:37:24;94682.44;;;18.29;100.00
40708;BME280;26392;42.696;23.350;2023-07-02T00:39:49;94683.09;;;18.34;100.00
40708;BME280;26392;42.696;23.350;2023-07-02T00:42:15;94696.56;;;18.36;100.00
40708;BME280;26392;42.696;23.350;2023-07-02T00:44:41;94698.84;;;18.43;100.00
40708;BME280;26392;42.696;23.350;2023-07-02T00:47:11;94705.50;;;18.42;100.00
40708;BME280;26392;42.696;23.350;2023-07-02T00:49:39;94702.88;;;18.37;100.00
40708;BME280;26392;42.696;23.350;2023-07-02T00:52:05;94710.00;;;18.29;100.00
40708;BME280;26392;42.696;23.350;2023-07-02T00:54:31;94711.28;;;18.31;100.00
40708;BME280;26392;42.696;23.350;2023-07-02T00:56:57;94711.47;;;18.35;100.00
40708;BME280;26392;42.696;23.350;2023-07-02T00:59:28;94692.34;;;18.39;100.00
40708;BME280;26392;42.696;23.350;2023-07-02T01:01:55;94704.66;;;18.32;100.00
40708;BME280;26392;42.696;23.350;2023-07-02T01:04:22;94707.28;;;18.38;100.00
40708;BME280;26392;42.696;23.350;2023-07-02T01:06:53;94700.59;;;18.30;100.00
40708;BME280;26392;42.696;23.350;2023-07-02T01:09:23;94684.53;;;18.32;100.00
40708;BME280;26392;42.696;23.350;2023-07-02T01:11:54;94702.34;;;18.26;100.00
40708;BME280;26392;42.696;23.350;2023-07-02T01:14:26;94690.34;;;18.22;100.00
40708;BME280;26392;42.696;23.350;2023-07-02T01:16:55;94693.56;;;18.15;100.00
40708;BME280;26392;42.696;23.350;2023-07-02T01:19:44;94687.84;;;18.11;100.00
40708;BME280;26392;42.696;23.350;2023-07-02T01:22:11;94693.03;;;18.04;100.00
40708;BME280;26392;42.696;23.350;2023-07-02T01:24:41;94687.81;;;18.03;100.00
40708;BME280;26392;42.696;23.350;2023-07-02T01:27:07;94700.38;;;18.18;100.00
40708;BME280;26392;42.696;23.350;2023-07-02T01:29:32;94706.88;;;18.22;100.00
40708;BME280;26392;42.696;23.350;2023-07-02T01:32:02;94690.22;;;18.36;100.00
40708;BME280;26392;42.696;23.350;2023-07-02T01:34:28;94675.44;;;18.31;100.00
40708;BME280;26392;42.696;23.350;2023-07-02T01:36:53;94668.25;;;18.13;100.00
40708;BME280;26392;42.696;23.350;2023-07-02T01:39:19;94654.09;;;18.06;100.00
40708;BME280;26392;42.696;23.350;2023-07-02T01:41:52;94672.00;;;18.26;100.00
40708;BME280;26392;42.696;23.350;2023-07-02T01:44:19;94668.00;;;18.32;100.00
40708;BME280;26392;42.696;23.350;2023-07-02T01:46:45;94674.19;;;18.38;100.00
40708;BME280;26392;42.696;23.350;2023-07-02T01:49:17;94684.03;;;18.30;100.00
40708;BME280;26392;42.696;23.350;2023-07-02T01:51:52;94685.97;;;18.21;100.00
40708;BME280;26392;42.696;23.350;2023-07-02T01:54:19;94685.53;;;17.96;100.00
40708;BME280;26392;42.696;23.350;2023-07-02T01:56:44;94675.69;;;18.04;100.00
40708;BME280;26392;42.696;23.350;2023-07-02T01:59:10;94674.16;;;17.98;100.00
40708;BME280;26392;42.696;23.350;2023-07-02T02:01:36;94673.41;;;18.06;100.00
40708;BME280;26392;42.696;23.350;2023-07-02T02:04:01;94658.25;;;17.86;100.00
40708;BME280;26392;42.696;23.350;2023-07-02T02:06:27;94652.78;;;17.72;100.00
40708;BME280;26392;42.696;23.350;2023-07-02T02:08:52;94660.38;;;17.66;100.00
40708;BME280;26392;42.696;23.350;2023-07-02T02:11:17;94649.94;;;17.55;100.00
40708;BME280;26392;42.696;23.350;2023-07-02T02:13:43;94651.56;;;17.56;100.00
40708;BME280;26392;42.696;23.350;2023-07-02T02:16:08;94648.81;;;17.56;100.00
40708;BME280;26392;42.696;23.350;2023-07-02T02:18:34;94655.22;;;17.42;100.00
40708;BME280;26392;42.696;23.350;2023-07-02T02:21:00;94661.91;;;17.50;100.00
40708;BME280;26392;42.696;23.350;2023-07-02T02:23:25;94672.31;;;17.53;100.00
40708;BME280;26392;42.696;23.350;2023-07-02T02:25:51;94665.97;;;17.53;100.00
40708;BME280;26392;42.696;23.350;2023-07-02T02:28:16;94651.22;;;17.49;100.00
40708;BME280;26392;42.696;23.350;2023-07-02T02:30:42;94652.44;;;17.34;100.00
40708;BME280;26392;42.696;23.350;2023-07-02T02:33:07;94634.09;;;17.29;100.00
40708;BME280;26392;42.696;23.350;2023-07-02T02:35:32;94643.63;;;17.54;100.00
40708;BME280;26392;42.696;23.350;2023-07-02T02:38:02;94638.47;;;17.61;100.00
40708;BME280;26392;42.696;23.350;2023-07-02T02:40:27;94647.91;;;17.69;100.00
40708;BME280;26392;42.696;23.350;2023-07-02T02:42:53;94635.28;;;17.68;100.00
40708;BME280;26392;42.696;23.350;2023-07-02T02:45:19;94637.06;;;17.73;100.00
40708;BME280;26392;42.696;23.350;2023-07-02T02:47:45;94623.94;;;17.70;100.00
40708;BME280;26392;42.696;23.350;2023-07-02T02:50:13;94635.56;;;17.89;100.00
40708;BME280;26392;42.696;23.350;2023-07-02T02:52:39;94644.88;;;18.02;100.00
40708;BME280;26392;42.696;23.350;2023-07-02T02:55:06;94650.88;;;18.04;100.00
40708;BME280;26392;42.696;23.350;2023-07-02T02:57:31;94661.06;;;18.03;100.00
40708;BME280;26392;42.696;23.350;2023-07-02T02:59:57;94650.38;;;18.02;100.00
40708;BME280;26392;42.696;23.350;2023-07-02T03:02:22;94645.19;;;18.09;100.00
40708;BME280;26392;42.696;23.350;2023-07-02T03:04:48;94652.38;;;18.19;100.00
40708;BME280;26392;42.696;23.350;2023-07-02T03:07:14;94652.09;;;18.29;100.00
40708;BME280;26392;42.696;23.350;2023-07-02T03:09:40;94662.50;;;18.32;100.00
40708;BME280;26392;42.696;23.350;2023-07-02T03:12:06;94644.50;;;18.34;100.00
40708;BME280;26392;42.696;23.350;2023-07-02T03:14:31;94650.47;;;18.37;100.00
40708;BME280;26392;42.696;23.350;2023-07-02T03:16:57;94643.38;;;18.44;100.00
40708;BME280;26392;42.696;23.350;2023-07-02T03:19:22;94628.78;;;18.44;100.00
40708;BME280;26392;42.696;23.350;2023-07-02T03:21:48;94637.34;;;18.42;100.00
40708;BME280;26392;42.696;23.350;2023-07-02T03:24:13;94642.56;;;18.44;100.00
40708;BME280;26392;42.696;23.350;2023-07-02T03:26:39;94650.56;;;18.63;100.00
40708;BME280;26392;42.696;23.350;2023-07-02T03:29:06;94665.31;;;18.67;100.00
40708;BME280;26392;42.696;23.350;2023-07-02T03:31:32;94666.63;;;18.69;100.00
40708;BME280;26392;42.696;23.350;2023-07-02T03:33:57;94676.50;;;18.70;100.00
40708;BME280;26392;42.696;23.350;2023-07-02T03:36:22;94676.88;;;18.77;100.00
40708;BME280;26392;42.696;23.350;2023-07-02T03:38:48;94671.06;;;19.05;100.00
40708;BME280;26392;42.696;23.350;2023-07-02T03:41:13;94665.06;;;19.20;100.00
40708;BME280;26392;42.696;23.350;2023-07-02T03:43:39;94667.81;;;19.29;100.00
40708;BME280;26392;42.696;23.350;2023-07-02T03:46:04;94672.03;;;19.18;100.00
40708;BME280;26392;42.696;23.350;2023-07-02T03:48:29;94682.41;;;19.21;100.00
40708;BME280;26392;42.696;23.350;2023-07-02T03:50:55;94659.22;;;19.22;100.00
40708;BME280;26392;42.696;23.350;2023-07-02T03:53:20;94659.06;;;19.27;100.00
40708;BME280;26392;42.696;23.350;2023-07-02T03:55:46;94654.81;;;19.12;100.00
40708;BME280;26392;42.696;23.350;2023-07-02T03:58:11;94662.78;;;19.31;100.00
40708;BME280;26392;42.696;23.350;2023-07-02T04:00:36;94652.88;;;19.30;100.00
40708;BME280;26392;42.696;23.350;2023-07-02T04:03:02;94665.22;;;19.15;100.00
40708;BME280;26392;42.696;23.350;2023-07-02T04:05:28;94672.38;;;19.25;100.00
40708;BME280;26392;42.696;23.350;2023-07-02T04:07:54;94664.56;;;19.27;100.00
40708;BME280;26392;42.696;23.350;2023-07-02T04:10:19;94659.19;;;18.87;100.00
40708;BME280;26392;42.696;23.350;2023-07-02T04:12:45;94676.75;;;18.91;100.00
40708;BME280;26392;42.696;23.350;2023-07-02T04:15:10;94686.16;;;18.90;100.00
40708;BME280;26392;42.696;23.350;2023-07-02T04:17:36;94651.34;;;18.54;100.00
40708;BME280;26392;42.696;23.350;2023-07-02T04:20:01;94688.09;;;18.81;100.00
40708;BME280;26392;42.696;23.350;2023-07-02T04:22:29;94710.81;;;18.78;100.00
40708;BME280;26392;42.696;23.350;2023-07-02T04:24:54;94706.75;;;18.75;100.00
40708;BME280;26392;42.696;23.350;2023-07-02T04:27:19;94701.84;;;18.72;100.00
40708;BME280;26392;42.696;23.350;2023-07-02T04:29:45;94703.34;;;18.87;100.00
40708;BME280;26392;42.696;23.350;2023-07-02T04:32:11;94702.22;;;18.88;100.00
40708;BME280;26392;42.696;23.350;2023-07-02T04:34:36;94706.94;;;18.96;100.00
40708;BME280;26392;42.696;23.350;2023-07-02T04:37:05;94715.06;;;19.01;100.00
40708;BME280;26392;42.696;23.350;2023-07-02T04:39:31;94711.03;;;19.08;100.00
40708;BME280;26392;42.696;23.350;2023-07-02T04:41:56;94696.88;;;19.00;100.00
40708;BME280;26392;42.696;23.350;2023-07-02T04:44:22;94722.06;;;18.99;100.00
40708;BME280;26392;42.696;23.350;2023-07-02T04:47:03;94733.94;;;19.17;100.00
40708;BME280;26392;42.696;23.350;2023-07-02T04:49:28;94729.72;;;19.28;100.00
40708;BME280;26392;42.696;23.350;2023-07-02T04:51:54;94731.50;;;19.33;100.00
40708;BME280;26392;42.696;23.350;2023-07-02T04:54:20;94728.75;;;19.41;100.00
40708;BME280;26392;42.696;23.350;2023-07-02T04:56:46;94733.28;;;19.46;100.00
40708;BME280;26392;42.696;23.350;2023-07-02T04:59:12;94740.94;;;19.58;100.00
40708;BME280;26392;42.696;23.350;2023-07-02T05:01:37;94739.47;;;19.69;100.00
40708;BME280;26392;42.696;23.350;2023-07-02T05:04:05;94742.72;;;19.71;100.00
40708;BME280;26392;42.696;23.350;2023-07-02T05:06:30;94733.59;;;19.79;100.00
40708;BME280;26392;42.696;23.350;2023-07-02T05:08:55;94745.31;;;19.67;100.00
40708;BME280;26392;42.696;23.350;2023-07-02T05:11:21;94745.47;;;19.80;100.00
40708;BME280;26392;42.696;23.350;2023-07-02T05:13:46;94743.97;;;19.91;100.00
40708;BME280;26392;42.696;23.350;2023-07-02T05:16:12;94743.78;;;20.05;100.00
40708;BME280;26392;42.696;23.350;2023-07-02T05:18:38;94744.59;;;20.14;100.00
40708;BME280;26392;42.696;23.350;2023-07-02T05:21:04;94744.44;;;20.10;100.00
40708;BME280;26392;42.696;23.350;2023-07-02T05:23:29;94755.28;;;20.24;100.00
40708;BME280;26392;42.696;23.350;2023-07-02T05:25:54;94750.22;;;20.35;100.00
40708;BME280;26392;42.696;23.350;2023-07-02T05:28:20;94744.31;;;20.45;100.00
40708;BME280;26392;42.696;23.350;2023-07-02T05:30:45;94749.06;;;20.45;100.00
40708;BME280;26392;42.696;23.350;2023-07-02T05:33:11;94744.13;;;20.59;100.00
40708;BME280;26392;42.696;23.350;2023-07-02T05:35:36;94732.22;;;20.67;100.00
40708;BME280;26392;42.696;23.350;2023-07-02T05:38:01;94738.38;;;20.73;100.00
40708;BME280;26392;42.696;23.350;2023-07-02T05:40:27;94736.69;;;20.81;100.00
40708;BME280;26392;42.696;23.350;2023-07-02T05:42:52;94737.91;;;20.92;100.00
40708;BME280;26392;42.696;23.350;2023-07-02T05:45:18;94745.59;;;20.86;100.00
40708;BME280;26392;42.696;23.350;2023-07-02T05:47:44;94747.19;;;20.96;100.00
40708;BME280;26392;42.696;23.350;2023-07-02T05:50:09;94752.03;;;20.69;100.00
40708;BME280;26392;42.696;23.350;2023-07-02T05:52:34;94760.41;;;20.90;100.00
40708;BME280;26392;42.696;23.350;2023-07-02T05:55:00;94750.03;;;21.08;100.00
40708;BME280;26392;42.696;23.350;2023-07-02T05:57:27;94750.59;;;21.01;100.00
40708;BME280;26392;42.696;23.350;2023-07-02T05:59:52;94749.84;;;21.13;100.00
40708;BME280;26392;42.696;23.350;2023-07-02T06:02:18;94745.06;;;21.22;100.00
40708;BME280;26392;42.696;23.350;2023-07-02T06:04:43;94746.50;;;21.29;100.00
40708;BME280;26392;42.696;23.350;2023-07-02T06:07:08;94742.69;;;21.33;100.00
40708;BME280;26392;42.696;23.350;2023-07-02T06:09:34;94745.16;;;21.77;100.00
40708;BME280;26392;42.696;23.350;2023-07-02T06:11:59;94739.47;;;22.06;100.00
40708;BME280;26392;42.696;23.350;2023-07-02T06:14:25;94747.91;;;22.43;100.00
40708;BME280;26392;42.696;23.350;2023-07-02T06:16:52;94747.25;;;22.71;100.00
40708;BME280;26392;42.696;23.350;2023-07-02T06:19:18;94737.09;;;22.75;100.00
40708;BME280;26392;42.696;23.350;2023-07-02T06:21:43;94728.50;;;22.55;100.00
40708;BME280;26392;42.696;23.350;2023-07-02T06:24:09;94715.91;;;22.58;100.00
40708;BME280;26392;42.696;23.350;2023-07-02T06:26:34;94722.59;;;22.32;100.00
40708;BME280;26392;42.696;23.350;2023-07-02T06:28:59;94718.09;;;22.52;100.00
40708;BME280;26392;42.696;23.350;2023-07-02T06:31:25;94721.59;;;22.86;100.00
40708;BME280;26392;42.696;23.350;2023-07-02T06:33:50;94724.03;;;23.00;100.00
40708;BME280;26392;42.696;23.350;2023-07-02T06:36:16;94723.31;;;23.15;100.00
40708;BME280;26392;42.696;23.350;2023-07-02T06:38:43;94721.69;;;23.14;100.00
40708;BME280;26392;42.696;23.350;2023-07-02T06:41:08;94719.59;;;23.23;100.00
40708;BME280;26392;42.696;23.350;2023-07-02T06:43:34;94711.81;;;23.41;100.00
40708;BME280;26392;42.696;23.350;2023-07-02T06:45:59;94721.28;;;23.40;100.00
40708;BME280;26392;42.696;23.350;2023-07-02T06:48:25;94719.50;;;23.60;100.00
40708;BME280;26392;42.696;23.350;2023-07-02T06:50:50;94707.59;;;23.88;100.00
40708;BME280;26392;42.696;23.350;2023-07-02T06:53:16;94716.81;;;24.04;100.00
40708;BME280;26392;42.696;23.350;2023-07-02T06:55:41;94712.00;;;24.17;100.00
40708;BME280;26392;42.696;23.350;2023-07-02T06:58:07;94719.13;;;24.02;100.00
40708;BME280;26392;42.696;23.350;2023-07-02T07:00:32;94713.94;;;23.73;100.00
40708;BME280;26392;42.696;23.350;2023-07-02T07:03:02;94728.63;;;23.61;100.00
40708;BME280;26392;42.696;23.350;2023-07-02T07:05:29;94725.91;;;23.49;100.00
40708;BME280;26392;42.696;23.350;2023-07-02T07:07:55;94733.47;;;23.36;100.00
40708;BME280;26392;42.696;23.350;2023-07-02T07:10:20;94719.28;;;23.00;100.00
40708;BME280;26392;42.696;23.350;2023-07-02T07:12:46;94715.88;;;23.32;100.00
40708;BME280;26392;42.696;23.350;2023-07-02T07:15:11;94717.75;;;23.15;100.00
40708;BME280;26392;42.696;23.350;2023-07-02T07:17:37;94720.25;;;23.33;100.00
40708;BME280;26392;42.696;23.350;2023-07-02T07:20:02;94715.09;;;23.59;100.00
40708;BME280;26392;42.696;23.350;2023-07-02T07:22:30;94709.53;;;23.72;100.00
40708;BME280;26392;42.696;23.350;2023-07-02T07:24:55;94703.34;;;23.38;100.00
40708;BME280;26392;42.696;23.350;2023-07-02T07:27:21;94695.13;;;23.41;100.00
40708;BME280;26392;42.696;23.350;2023-07-02T07:29:46;94710.78;;;23.34;100.00
40708;BME280;26392;42.696;23.350;2023-07-02T07:32:11;94715.91;;;23.60;100.00
40708;BME280;26392;42.696;23.350;2023-07-02T07:34:37;94713.88;;;23.44;100.00
40708;BME280;26392;42.696;23.350;2023-07-02T07:37:02;94716.34;;;23.74;100.00
40708;BME280;26392;42.696;23.350;2023-07-02T07:39:28;94707.44;;;23.97;100.00
40708;BME280;26392;42.696;23.350;2023-07-02T07:41:53;94704.50;;;24.05;100.00
40708;BME280;26392;42.696;23.350;2023-07-02T07:44:19;94712.78;;;24.33;100.00
40708;BME280;26392;42.696;23.350;2023-07-02T07:46:44;94703.16;;;24.43;100.00
40708;BME280;26392;42.696;23.350;2023-07-02T07:49:10;94703.50;;;24.58;100.00
40708;BME280;26392;42.696;23.350;2023-07-02T07:51:35;94700.47;;;24.63;100.00
40708;BME280;26392;42.696;23.350;2023-07-02T07:54:04;94715.81;;;24.72;100.00
40708;BME280;26392;42.696;23.350;2023-07-02T07:56:29;94714.56;;;24.86;97.92
40708;BME280;26392;42.696;23.350;2023-07-02T07:58:55;94709.28;;;24.65;99.97
40708;BME280;26392;42.696;23.350;2023-07-02T08:01:20;94718.97;;;24.71;100.00
40708;BME280;26392;42.696;23.350;2023-07-02T08:03:46;94718.88;;;24.83;100.00
40708;BME280;26392;42.696;23.350;2023-07-02T08:06:11;94716.91;;;24.52;100.00
40708;BME280;26392;42.696;23.350;2023-07-02T08:08:37;94719.31;;;24.85;100.00
40708;BME280;26392;42.696;23.350;2023-07-02T08:11:02;94714.63;;;25.21;100.00
40708;BME280;26392;42.696;23.350;2023-07-02T08:13:28;94715.69;;;25.32;96.98
40708;BME280;26392;42.696;23.350;2023-07-02T08:15:53;94717.63;;;25.32;97.30
40708;BME280;26392;42.696;23.350;2023-07-02T08:18:19;94716.31;;;25.26;94.50
40708;BME280;26392;42.696;23.350;2023-07-02T08:20:44;94722.59;;;25.22;94.95
40708;BME280;26392;42.696;23.350;2023-07-02T08:23:09;94713.31;;;25.34;94.24
40708;BME280;26392;42.696;23.350;2023-07-02T08:25:36;94713.63;;;25.49;91.58
40708;BME280;26392;42.696;23.350;2023-07-02T08:28:02;94708.22;;;25.56;90.21
40708;BME280;26392;42.696;23.350;2023-07-02T08:30:27;94707.25;;;25.67;89.68
40708;BME280;26392;42.696;23.350;2023-07-02T08:32:52;94713.13;;;25.62;90.76
40708;BME280;26392;42.696;23.350;2023-07-02T08:35:19;94707.34;;;25.71;89.61
40708;BME280;26392;42.696;23.350;2023-07-02T08:37:44;94703.63;;;25.83;89.25
40708;BME280;26392;42.696;23.350;2023-07-02T08:40:17;94700.09;;;26.05;88.70
40708;BME280;26392;42.696;23.350;2023-07-02T08:42:47;94704.13;;;26.08;87.77
40708;BME280;26392;42.696;23.350;2023-07-02T08:45:14;94697.22;;;26.02;89.91
40708;BME280;26392;42.696;23.350;2023-07-02T08:47:41;94709.63;;;26.04;87.12
40708;BME280;26392;42.696;23.350;2023-07-02T08:50:06;94698.75;;;26.19;88.04
40708;BME280;26392;42.696;23.350;2023-07-02T08:52:32;94712.41;;;26.04;86.05
40708;BME280;26392;42.696;23.350;2023-07-02T08:54:57;94711.06;;;25.79;86.78
40708;BME280;26392;42.696;23.350;2023-07-02T08:57:23;94704.47;;;25.67;87.94
40708;BME280;26392;42.696;23.350;2023-07-02T08:59:48;94689.03;;;25.54;90.57
40708;BME280;26392;42.696;23.350;2023-07-02T09:02:16;94698.34;;;25.42;92.71
40708;BME280;26392;42.696;23.350;2023-07-02T09:04:41;94696.69;;;25.38;93.98
40708;BME280;26392;42.696;23.350;2023-07-02T09:07:09;94698.59;;;25.53;94.67
40708;BME280;26392;42.696;23.350;2023-07-02T09:09:45;94697.84;;;25.56;93.56
40708;BME280;26392;42.696;23.350;2023-07-02T09:12:24;94697.78;;;25.72;89.78
40708;BME280;26392;42.696;23.350;2023-07-02T09:15:00;94696.06;;;25.83;87.62
40708;BME280;26392;42.696;23.350;2023-07-02T09:17:31;94698.09;;;25.67;88.38
40708;BME280;26392;42.696;23.350;2023-07-02T09:19:58;94694.84;;;25.65;87.65
40708;BME280;26392;42.696;23.350;2023-07-02T09:22:27;94689.78;;;25.71;86.81
40708;BME280;26392;42.696;23.350;2023-07-02T09:24:55;94692.19;;;25.88;85.05
40708;BME280;26392;42.696;23.350;2023-07-02T09:27:21;94684.50;;;26.04;83.63
40708;BME280;26392;42.696;23.350;2023-07-02T09:29:51;94680.53;;;26.25;83.27
40708;BME280;26392;42.696;23.350;2023-07-02T09:32:26;94684.13;;;26.48;84.35
40708;BME280;26392;42.696;23.350;2023-07-02T09:34:55;94686.75;;;26.61;85.22
40708;BME280;26392;42.696;23.350;2023-07-02T09:37:23;94682.91;;;26.26;84.63
40708;BME280;26392;42.696;23.350;2023-07-02T09:39:50;94677.22;;;26.42;83.35
40708;BME280;26392;42.696;23.350;2023-07-02T09:42:17;94668.28;;;26.52;80.80
40708;BME280;26392;42.696;23.350;2023-07-02T09:44:45;94672.66;;;26.53;82.37
40708;BME280;26392;42.696;23.350;2023-07-02T09:47:12;94667.84;;;26.50;83.06
40708;BME280;26392;42.696;23.350;2023-07-02T09:49:38;94676.16;;;26.96;81.89
40708;BME280;26392;42.696;23.350;2023-07-02T09:52:05;94682.94;;;26.95;77.43
40708;BME280;26392;42.696;23.350;2023-07-02T09:54:31;94682.34;;;27.09;76.88
40708;BME280;26392;42.696;23.350;2023-07-02T09:56:59;94674.00;;;26.86;75.85
40708;BME280;26392;42.696;23.350;2023-07-02T09:59:25;94681.34;;;26.94;80.93
40708;BME280;26392;42.696;23.350;2023-07-02T10:01:51;94665.28;;;26.91;77.19
40708;BME280;26392;42.696;23.350;2023-07-02T10:04:18;94675.97;;;27.09;76.22
40708;BME280;26392;42.696;23.350;2023-07-02T10:06:48;94672.28;;;26.78;78.89
40708;BME280;26392;42.696;23.350;2023-07-02T10:09:16;94668.03;;;26.88;78.34
40708;BME280;26392;42.696;23.350;2023-07-02T10:11:41;94670.84;;;26.19;81.56
40708;BME280;26392;42.696;23.350;2023-07-02T10:14:06;94662.91;;;26.01;87.81
40708;BME280;26392;42.696;23.350;2023-07-02T10:16:32;94660.13;;;26.01;91.25
40708;BME280;26392;42.696;23.350;2023-07-02T10:21:35;94641.69;;;26.39;94.20
40708;BME280;26392;42.696;23.350;2023-07-02T10:26:36;94640.75;;;26.54;79.16
40708;BME280;26392;42.696;23.350;2023-07-02T10:29:01;94638.59;;;26.67;78.95
40708;BME280;26392;42.696;23.350;2023-07-02T10:31:27;94629.56;;;26.77;76.27
40708;BME280;26392;42.696;23.350;2023-07-02T10:33:53;94630.16;;;26.64;75.86
40708;BME280;26392;42.696;23.350;2023-07-02T10:36:22;94625.69;;;26.59;80.38
40708;BME280;26392;42.696;23.350;2023-07-02T10:38:49;94630.63;;;26.69;76.07
40708;BME280;26392;42.696;23.350;2023-07-02T10:43:50;94626.50;;;26.86;71.35
40708;BME280;26392;42.696;23.350;2023-07-02T10:46:22;94624.72;;;27.28;71.25
40708;BME280;26392;42.696;23.350;2023-07-02T10:48:55;94620.47;;;27.71;69.86
40708;BME280;26392;42.696;23.350;2023-07-02T10:51:21;94622.97;;;28.17;63.85
40708;BME280;26392;42.696;23.350;2023-07-02T10:53:59;94619.72;;;28.49;58.76
40708;BME280;26392;42.696;23.350;2023-07-02T10:56:26;94613.22;;;28.86;57.09
40708;BME280;26392;42.696;23.350;2023-07-02T10:58:53;94612.00;;;28.90;56.04
40708;BME280;26392;42.696;23.350;2023-07-02T11:01:29;94616.38;;;28.81;55.05
40708;BME280;26392;42.696;23.350;2023-07-02T11:04:04;94607.19;;;28.84;54.97
40708;BME280;26392;42.696;23.350;2023-07-02T11:06:31;94613.81;;;29.13;51.49
40708;BME280;26392;42.696;23.350;2023-07-02T11:08:58;94607.84;;;29.21;51.05
40708;BME280;26392;42.696;23.350;2023-07-02T11:11:23;94612.88;;;28.98;50.62
40708;BME280;26392;42.696;23.350;2023-07-02T11:13:50;94601.91;;;29.34;50.34
40708;BME280;26392;42.696;23.350;2023-07-02T11:16:27;94604.81;;;29.55;49.82
40708;BME280;26392;42.696;23.350;2023-07-02T11:19:07;94608.94;;;29.76;50.64
40708;BME280;26392;42.696;23.350;2023-07-02T11:21:36;94608.97;;;29.94;48.28
40708;BME280;26392;42.696;23.350;2023-07-02T11:24:02;94602.13;;;29.84;48.62
40708;BME280;26392;42.696;23.350;2023-07-02T11:26:39;94585.31;;;29.91;48.26
40708;BME280;26392;42.696;23.350;2023-07-02T11:29:07;94605.00;;;30.05;49.59
40708;BME280;26392;42.696;23.350;2023-07-02T11:31:35;94605.75;;;29.88;47.40
40708;BME280;26392;42.696;23.350;2023-07-02T11:34:01;94611.97;;;29.42;50.25
40708;BME280;26392;42.696;23.350;2023-07-02T11:36:26;94616.38;;;28.81;56.75
40708;BME280;26392;42.696;23.350;2023-07-02T11:38:55;94611.50;;;27.88;63.72
40708;BME280;26392;42.696;23.350;2023-07-02T11:41:21;94601.50;;;27.54;68.62
40708;BME280;26392;42.696;23.350;2023-07-02T11:43:46;94608.50;;;27.40;71.06
40708;BME280;26392;42.696;23.350;2023-07-02T11:46:13;94609.16;;;27.30;71.54
40708;BME280;26392;42.696;23.350;2023-07-02T11:48:39;94611.88;;;27.23;72.38
40708;BME280;26392;42.696;23.350;2023-07-02T11:51:04;94611.75;;;27.42;74.29
40708;BME280;26392;42.696;23.350;2023-07-02T11:53:29;94600.63;;;27.83;69.03
40708;BME280;26392;42.696;23.350;2023-07-02T11:55:55;94607.16;;;27.95;70.29
40708;BME280;26392;42.696;23.350;2023-07-02T11:58:20;94606.03;;;28.03;64.98
40708;BME280;26392;42.696;23.350;2023-07-02T12:00:46;94613.97;;;27.97;60.74
40708;BME280;26392;42.696;23.350;2023-07-02T12:03:11;94606.19;;;28.17;60.18
40708;BME280;26392;42.696;23.350;2023-07-02T12:05:37;94614.22;;;28.19;57.85
40708;BME280;26392;42.696;23.350;2023-07-02T12:08:03;94609.63;;;28.00;55.63
40708;BME280;26392;42.696;23.350;2023-07-02T12:10:28;94632.09;;;28.07;52.81
40708;BME280;26392;42.696;23.350;2023-07-02T12:12:54;94630.25;;;27.84;52.70
40708;BME280;26392;42.696;23.350;2023-07-02T12:15:19;94635.81;;;27.51;54.16
40708;BME280;26392;42.696;23.350;2023-07-02T12:17:45;94639.03;;;27.22;54.95
40708;BME280;26392;42.696;23.350;2023-07-02T12:20:10;94638.81;;;26.82;57.61
40708;BME280;26392;42.696;23.350;2023-07-02T12:22:36;94639.25;;;26.38;62.50
40708;BME280;26392;42.696;23.350;2023-07-02T12:25:01;94641.00;;;26.23;66.45
40708;BME280;26392;42.696;23.350;2023-07-02T12:27:27;94641.47;;;26.05;69.53
40708;BME280;26392;42.696;23.350;2023-07-02T12:29:52;94646.63;;;26.03;72.69
40708;BME280;26392;42.696;23.350;2023-07-02T12:32:18;94645.63;;;26.15;76.86
40708;BME280;26392;42.696;23.350;2023-07-02T12:34:43;94643.72;;;26.42;79.68
40708;BME280;26392;42.696;23.350;2023-07-02T12:37:09;94643.94;;;26.53;82.07
40708;BME280;26392;42.696;23.350;2023-07-02T12:39:34;94643.13;;;26.52;88.98
40708;BME280;26392;42.696;23.350;2023-07-02T12:42:00;94645.34;;;26.66;87.06
40708;BME280;26392;42.696;23.350;2023-07-02T12:44:25;94644.91;;;26.91;85.88
40708;BME280;26392;42.696;23.350;2023-07-02T12:46:51;94644.13;;;26.90;80.85